Portada
METAR-TAF:

METAR-TAF

Aeroports :

Kumamoto, Japó

latitud: 32-50N, longitud: 130-51E, altitud: 193 m

Observació

L'informe es va fer fa 57 minuts, a les 10:00 UTC
Vent 3 kt del Sud-Est
Temperatura 7°C
Humitat 70%
Pressió 1026 hPa
Visibilitat 10 km o més
sense núvols per sota de 1500 mi sense presència de cumulonimbus.

METAR: RJFT 211000Z 14003KT CAVOK 07/02 Q1026

Hora: 19:57 (10:57 UTC)

Pronòstic

L'informe es va fer fa 5 hores i 41 minuts, a les 05:16 UTC
Pronòstic vàlid del 21 a les 06 UTC al 22 a les 12 UTC
Vent 5 kt del Nord-Oest
Visibilitat 10 km o més
Escasses núvols a una alçada de 4000 ft
Evolucionant progressivament
l' 21 a les 09 UTC al 21 a les 11 UTC
Vent 6 kt del Est/Nord-Est
Temporalment
l' 22 a les 06 UTC al 22 a les 12 UTC
Visibilitat: 4000 m
xàfecs de pluja, boirina

TAF: RJFT 210516Z 2106/2212 32005KT 9999 FEW040 BECMG 2109/2111 06006KT TEMPO 2206/2212 4000 -SHRA BR

Observacions i pronòstics meteorològics de més de 4000 aeroports (METAR i TAF).

Les estacions disponibles són els punts grocs i vermells al mapa.

Posi el ratolí al punt desitjat per veure el nom de l'estació.

Feu clic per veure les observacions i els pronòstics meteorològics.

Per canviar el mapa: feu clic els botons verds amb una creu de color negre per apropar; al botó verd amb un guió per allunyar la imatge; o en les fletxes verdes per a mapes adjacents.


METAR-TAF: